logo
Rechercher aéroport 
image banner adimage banner adimage banner ad
image banner ad

MMLAN - Los Angeles

Situé à Ciudad Acuña, Mexico

ICAO - , IATA -

Données fournies par Airmate  

Information générale

Coordonnées: N29°30'2" W101°40'3"
Élévation : 1771 feet MSL.
Variation magnétique : 5° East
Voir autres Aéroports à Coahuila

Données opérationnelles

Special qualification required
Heure actuelle UTC:
Heure actuelle locale:
Météo à : KDRT - Del Rio Intl ( 73 km )
METAR: KDRT 251653Z AUTO 12012G21KT 4SM HZ OVC020 31/24 A2975 RMK AO2 SLP060 T03110239 $
TAF: KDRT 251458Z 2515/2612 11012KT 6SM HZ BKN015 FM251700 14016KT P6SM FEW250
Voir NOTAMs / SUP AIP / TFR affectant cet aéroport [VIEW]
Fréquences de communication: [VIEW]

Pistes:

Identifiant RWYQFULongueur (ft)Largeur (ft)SurfaceLDA (ft)
25258°398671DIRT
0778°398671DIRT
14148°197344DIRT
32328°197344DIRT

Coordonnées de l'aéroport

Adresse: Ciudad Acuña Mexico

Vue satellite de MMLAN